sensor_id;sensor_type;location;lat;lon;timestamp;pressure;altitude;pressure_sealevel;temperature;humidity
56928;BME280;60850;52.502;13.426;2023-02-23T00:03:53;101005.06;;;4.41;100.00
56928;BME280;60850;52.502;13.426;2023-02-23T00:06:21;101001.59;;;4.44;100.00
56928;BME280;60850;52.502;13.426;2023-02-23T00:08:48;101003.31;;;4.40;100.00
56928;BME280;60850;52.502;13.426;2023-02-23T00:11:18;100997.16;;;4.43;100.00
56928;BME280;60850;52.502;13.426;2023-02-23T00:13:47;100993.66;;;4.46;100.00
56928;BME280;60850;52.502;13.426;2023-02-23T00:16:16;100996.31;;;4.55;100.00
56928;BME280;60850;52.502;13.426;2023-02-23T00:18:45;100997.19;;;4.46;100.00
56928;BME280;60850;52.502;13.426;2023-02-23T00:21:13;100987.50;;;4.47;100.00
56928;BME280;60850;52.502;13.426;2023-02-23T00:23:42;100995.41;;;4.47;100.00
56928;BME280;60850;52.502;13.426;2023-02-23T00:26:10;100982.16;;;4.30;100.00
56928;BME280;60850;52.502;13.426;2023-02-23T00:28:41;100978.66;;;4.32;100.00
56928;BME280;60850;52.502;13.426;2023-02-23T00:31:09;100978.69;;;4.45;100.00
56928;BME280;60850;52.502;13.426;2023-02-23T00:33:37;100983.97;;;4.40;100.00
56928;BME280;60850;52.502;13.426;2023-02-23T00:36:07;100977.81;;;4.38;100.00
56928;BME280;60850;52.502;13.426;2023-02-23T00:38:35;100992.75;;;4.37;100.00
56928;BME280;60850;52.502;13.426;2023-02-23T00:41:06;100983.97;;;4.38;100.00
56928;BME280;60850;52.502;13.426;2023-02-23T00:43:35;100979.56;;;4.40;100.00
56928;BME280;60850;52.502;13.426;2023-02-23T00:46:04;100986.59;;;4.40;100.00
56928;BME280;60850;52.502;13.426;2023-02-23T00:48:32;100992.75;;;4.44;100.00
56928;BME280;60850;52.502;13.426;2023-02-23T00:51:01;100986.59;;;4.51;100.00
56928;BME280;60850;52.502;13.426;2023-02-23T00:53:28;100983.97;;;4.45;100.00
56928;BME280;60850;52.502;13.426;2023-02-23T00:55:55;100978.69;;;4.48;100.00
56928;BME280;60850;52.502;13.426;2023-02-23T00:58:22;100980.44;;;4.43;100.00
56928;BME280;60850;52.502;13.426;2023-02-23T01:00:49;100984.84;;;4.42;100.00
56928;BME280;60850;52.502;13.426;2023-02-23T01:03:18;100978.69;;;4.41;100.00
56928;BME280;60850;52.502;13.426;2023-02-23T01:05:45;100986.59;;;4.40;100.00
56928;BME280;60850;52.502;13.426;2023-02-23T01:08:14;100974.25;;;4.27;100.00
56928;BME280;60850;52.502;13.426;2023-02-23T01:10:43;100971.63;;;4.31;100.00
56928;BME280;60850;52.502;13.426;2023-02-23T01:13:17;100970.72;;;4.25;100.00
56928;BME280;60850;52.502;13.426;2023-02-23T01:15:44;100976.03;;;4.40;100.00
56928;BME280;60850;52.502;13.426;2023-02-23T01:18:13;100981.31;;;4.31;100.00
56928;BME280;60850;52.502;13.426;2023-02-23T01:20:42;100967.22;;;4.32;100.00
56928;BME280;60850;52.502;13.426;2023-02-23T01:23:11;100976.94;;;4.37;100.00
56928;BME280;60850;52.502;13.426;2023-02-23T01:25:39;100966.31;;;4.24;100.00
56928;BME280;60850;52.502;13.426;2023-02-23T01:28:07;100966.31;;;4.19;100.00
56928;BME280;60850;52.502;13.426;2023-02-23T01:30:34;100968.94;;;4.21;100.00
56928;BME280;60850;52.502;13.426;2023-02-23T01:33:02;100970.72;;;4.29;100.00
56928;BME280;60850;52.502;13.426;2023-02-23T01:35:29;100961.03;;;4.28;100.00
56928;BME280;60850;52.502;13.426;2023-02-23T01:37:59;100957.50;;;4.20;100.00
56928;BME280;60850;52.502;13.426;2023-02-23T01:40:27;100947.84;;;4.24;100.00
56928;BME280;60850;52.502;13.426;2023-02-23T01:42:58;100966.31;;;4.25;100.00
56928;BME280;60850;52.502;13.426;2023-02-23T01:45:31;100950.47;;;4.19;100.00
56928;BME280;60850;52.502;13.426;2023-02-23T01:48:03;100955.72;;;4.13;100.00
56928;BME280;60850;52.502;13.426;2023-02-23T01:50:36;100944.31;;;4.20;100.00
56928;BME280;60850;52.502;13.426;2023-02-23T01:53:05;100946.94;;;4.14;100.00
56928;BME280;60850;52.502;13.426;2023-02-23T01:55:33;100948.69;;;4.12;100.00
56928;BME280;60850;52.502;13.426;2023-02-23T01:58:06;100940.81;;;4.17;100.00
56928;BME280;60850;52.502;13.426;2023-02-23T02:00:41;100950.50;;;4.25;100.00
56928;BME280;60850;52.502;13.426;2023-02-23T02:03:12;100940.81;;;4.26;100.00
56928;BME280;60850;52.502;13.426;2023-02-23T02:05:40;100938.19;;;4.26;100.00
56928;BME280;60850;52.502;13.426;2023-02-23T02:08:09;100944.34;;;4.23;100.00
56928;BME280;60850;52.502;13.426;2023-02-23T02:10:37;100932.00;;;4.18;100.00
56928;BME280;60850;52.502;13.426;2023-02-23T02:13:14;100932.84;;;4.06;100.00
56928;BME280;60850;52.502;13.426;2023-02-23T02:15:58;100922.31;;;4.13;100.00
56928;BME280;60850;52.502;13.426;2023-02-23T02:18:35;100928.44;;;4.05;100.00
56928;BME280;60850;52.502;13.426;2023-02-23T02:21:28;100927.56;;;4.06;100.00
56928;BME280;60850;52.502;13.426;2023-02-23T02:24:16;100918.78;;;4.11;100.00
56928;BME280;60850;52.502;13.426;2023-02-23T02:27:01;100914.34;;;4.01;100.00
56928;BME280;60850;52.502;13.426;2023-02-23T02:30:04;100912.63;;;4.05;100.00
56928;BME280;60850;52.502;13.426;2023-02-23T02:32:56;100916.09;;;3.99;100.00
56928;BME280;60850;52.502;13.426;2023-02-23T02:36:06;100913.44;;;3.89;100.00
56928;BME280;60850;52.502;13.426;2023-02-23T02:38:48;100911.66;;;3.88;100.00
56928;BME280;60850;52.502;13.426;2023-02-23T02:41:24;100912.56;;;3.90;100.00
56928;BME280;60850;52.502;13.426;2023-02-23T02:44:06;100912.53;;;3.83;100.00
56928;BME280;60850;52.502;13.426;2023-02-23T02:46:39;100908.09;;;3.73;100.00
56928;BME280;60850;52.502;13.426;2023-02-23T02:49:13;100909.00;;;3.78;100.00
56928;BME280;60850;52.502;13.426;2023-02-23T02:51:47;100911.66;;;3.74;100.00
56928;BME280;60850;52.502;13.426;2023-02-23T02:54:23;100907.28;;;3.82;100.00
56928;BME280;60850;52.502;13.426;2023-02-23T02:56:53;100909.94;;;3.88;100.00
56928;BME280;60850;52.502;13.426;2023-02-23T02:59:22;100904.63;;;3.85;100.00
56928;BME280;60850;52.502;13.426;2023-02-23T03:02:14;100900.25;;;3.89;100.00
56928;BME280;60850;52.502;13.426;2023-02-23T03:04:59;100900.22;;;3.87;100.00
56928;BME280;60850;52.502;13.426;2023-02-23T03:07:52;100894.06;;;3.80;100.00
56928;BME280;60850;52.502;13.426;2023-02-23T03:10:46;100899.34;;;3.80;100.00
56928;BME280;60850;52.502;13.426;2023-02-23T03:13:42;100895.81;;;3.78;100.00
56928;BME280;60850;52.502;13.426;2023-02-23T03:16:37;100888.78;;;3.77;100.00
56928;BME280;60850;52.502;13.426;2023-02-23T03:19:29;100882.66;;;3.83;100.00
56928;BME280;60850;52.502;13.426;2023-02-23T03:22:20;100879.13;;;3.79;100.00
56928;BME280;60850;52.502;13.426;2023-02-23T03:25:08;100880.84;;;3.73;100.00
56928;BME280;60850;52.502;13.426;2023-02-23T03:28:03;100887.00;;;3.73;100.00
56928;BME280;60850;52.502;13.426;2023-02-23T03:30:54;100888.69;;;3.54;100.00
56928;BME280;60850;52.502;13.426;2023-02-23T03:33:50;100885.22;;;3.62;100.00
56928;BME280;60850;52.502;13.426;2023-02-23T03:36:42;100880.84;;;3.67;100.00
56928;BME280;60850;52.502;13.426;2023-02-23T03:39:33;100879.94;;;3.66;100.00
56928;BME280;60850;52.502;13.426;2023-02-23T03:42:25;100879.97;;;3.68;100.00
56928;BME280;60850;52.502;13.426;2023-02-23T03:45:18;100879.97;;;3.71;100.00
56928;BME280;60850;52.502;13.426;2023-02-23T03:48:07;100879.09;;;3.69;100.00
56928;BME280;60850;52.502;13.426;2023-02-23T03:50:54;100879.03;;;3.58;100.00
56928;BME280;60850;52.502;13.426;2023-02-23T03:53:43;100870.22;;;3.51;100.00
56928;BME280;60850;52.502;13.426;2023-02-23T03:56:32;100876.38;;;3.47;100.00
56928;BME280;60850;52.502;13.426;2023-02-23T03:59:23;100872.00;;;3.52;100.00
56928;BME280;60850;52.502;13.426;2023-02-23T04:02:11;100870.19;;;3.44;100.00
56928;BME280;60850;52.502;13.426;2023-02-23T04:05:01;100867.59;;;3.47;100.00
56928;BME280;60850;52.502;13.426;2023-02-23T04:07:50;100866.75;;;3.55;100.00
56928;BME280;60850;52.502;13.426;2023-02-23T04:10:40;100866.69;;;3.42;100.00
56928;BME280;60850;52.502;13.426;2023-02-23T04:13:29;100866.59;;;3.31;100.00
56928;BME280;60850;52.502;13.426;2023-02-23T04:16:00;100859.53;;;3.22;100.00
56928;BME280;60850;52.502;13.426;2023-02-23T04:18:31;100869.25;;;3.29;100.00
56928;BME280;60850;52.502;13.426;2023-02-23T04:20:59;100868.41;;;3.32;100.00
56928;BME280;60850;52.502;13.426;2023-02-23T04:23:29;100866.66;;;3.34;100.00
56928;BME280;60850;52.502;13.426;2023-02-23T04:25:56;100863.06;;;3.23;100.00
56928;BME280;60850;52.502;13.426;2023-02-23T04:28:24;100870.97;;;3.18;100.00
56928;BME280;60850;52.502;13.426;2023-02-23T04:30:51;100867.44;;;3.19;100.00
56928;BME280;60850;52.502;13.426;2023-02-23T04:33:18;100871.00;;;3.24;100.00
56928;BME280;60850;52.502;13.426;2023-02-23T04:35:47;100863.06;;;3.18;100.00
56928;BME280;60850;52.502;13.426;2023-02-23T04:38:14;100859.53;;;3.22;100.00
56928;BME280;60850;52.502;13.426;2023-02-23T04:40:44;100865.69;;;3.18;100.00
56928;BME280;60850;52.502;13.426;2023-02-23T04:43:11;100861.28;;;3.17;100.00
56928;BME280;60850;52.502;13.426;2023-02-23T04:45:38;100854.19;;;3.06;100.00
56928;BME280;60850;52.502;13.426;2023-02-23T04:48:05;100856.84;;;3.09;100.00
56928;BME280;60850;52.502;13.426;2023-02-23T04:50:33;100850.66;;;3.02;100.00
56928;BME280;60850;52.502;13.426;2023-02-23T04:53:01;100852.41;;;3.01;100.00
56928;BME280;60850;52.502;13.426;2023-02-23T04:55:28;100848.88;;;2.98;100.00
56928;BME280;60850;52.502;13.426;2023-02-23T04:57:56;100852.34;;;2.95;100.00
56928;BME280;60850;52.502;13.426;2023-02-23T05:00:24;100855.00;;;2.94;100.00
56928;BME280;60850;52.502;13.426;2023-02-23T05:02:51;100847.13;;;2.97;100.00
56928;BME280;60850;52.502;13.426;2023-02-23T05:05:18;100845.34;;;2.91;100.00
56928;BME280;60850;52.502;13.426;2023-02-23T05:07:46;100850.56;;;2.85;100.00
56928;BME280;60850;52.502;13.426;2023-02-23T05:10:14;100840.91;;;2.83;100.00
56928;BME280;60850;52.502;13.426;2023-02-23T05:12:41;100848.78;;;2.84;100.00
56928;BME280;60850;52.502;13.426;2023-02-23T05:15:10;100844.38;;;2.82;100.00
56928;BME280;60850;52.502;13.426;2023-02-23T05:17:38;100837.34;;;2.78;100.00
56928;BME280;60850;52.502;13.426;2023-02-23T05:20:08;100840.84;;;2.77;100.00
56928;BME280;60850;52.502;13.426;2023-02-23T05:22:35;100844.31;;;2.72;100.00
56928;BME280;60850;52.502;13.426;2023-02-23T05:25:03;100839.03;;;2.69;100.00
56928;BME280;60850;52.502;13.426;2023-02-23T05:27:31;100845.22;;;2.76;100.00
56928;BME280;60850;52.502;13.426;2023-02-23T05:29:59;100840.81;;;2.70;100.00
56928;BME280;60850;52.502;13.426;2023-02-23T05:32:26;100838.13;;;2.67;100.00
56928;BME280;60850;52.502;13.426;2023-02-23T05:34:54;100840.81;;;2.69;100.00
56928;BME280;60850;52.502;13.426;2023-02-23T05:37:21;100845.22;;;2.76;100.00
56928;BME280;60850;52.502;13.426;2023-02-23T05:39:48;100843.47;;;2.78;100.00
56928;BME280;60850;52.502;13.426;2023-02-23T05:42:15;100841.78;;;2.85;100.00
56928;BME280;60850;52.502;13.426;2023-02-23T05:44:43;100846.16;;;2.83;100.00
56928;BME280;60850;52.502;13.426;2023-02-23T05:47:10;100847.03;;;2.83;100.00
56928;BME280;60850;52.502;13.426;2023-02-23T05:49:37;100846.13;;;2.78;100.00
56928;BME280;60850;52.502;13.426;2023-02-23T05:52:04;100851.31;;;2.69;100.00
56928;BME280;60850;52.502;13.426;2023-02-23T05:54:31;100856.59;;;2.73;100.00
56928;BME280;60850;52.502;13.426;2023-02-23T05:56:58;100863.56;;;2.67;100.00
56928;BME280;60850;52.502;13.426;2023-02-23T05:59:25;100860.00;;;2.60;100.00
56928;BME280;60850;52.502;13.426;2023-02-23T06:01:54;100868.78;;;2.56;100.00
56928;BME280;60850;52.502;13.426;2023-02-23T06:04:21;100874.88;;;2.54;100.00
56928;BME280;60850;52.502;13.426;2023-02-23T06:06:48;100872.22;;;2.47;100.00
56928;BME280;60850;52.502;13.426;2023-02-23T06:09:15;100876.59;;;2.48;100.00
56928;BME280;60850;52.502;13.426;2023-02-23T06:11:42;100869.59;;;2.52;100.00
56928;BME280;60850;52.502;13.426;2023-02-23T06:14:09;100874.00;;;2.53;100.00
56928;BME280;60850;52.502;13.426;2023-02-23T06:16:36;100874.09;;;2.64;100.00
56928;BME280;60850;52.502;13.426;2023-02-23T06:19:05;100878.41;;;2.57;100.00
56928;BME280;60850;52.502;13.426;2023-02-23T06:21:32;100871.41;;;2.59;100.00
56928;BME280;60850;52.502;13.426;2023-02-23T06:23:59;100880.16;;;2.55;100.00
56928;BME280;60850;52.502;13.426;2023-02-23T06:26:27;100874.91;;;2.57;100.00
56928;BME280;60850;52.502;13.426;2023-02-23T06:28:54;100881.06;;;2.60;100.00
56928;BME280;60850;52.502;13.426;2023-02-23T06:31:21;100874.09;;;2.64;100.00
56928;BME280;60850;52.502;13.426;2023-02-23T06:33:48;100878.47;;;2.63;100.00
56928;BME280;60850;52.502;13.426;2023-02-23T06:36:16;100884.69;;;2.74;100.00
56928;BME280;60850;52.502;13.426;2023-02-23T06:38:44;100886.53;;;2.85;100.00
56928;BME280;60850;52.502;13.426;2023-02-23T06:41:11;100883.91;;;2.86;100.00
56928;BME280;60850;52.502;13.426;2023-02-23T06:43:39;100887.47;;;2.93;100.00
56928;BME280;60850;52.502;13.426;2023-02-23T06:46:05;100884.03;;;3.05;100.00
56928;BME280;60850;52.502;13.426;2023-02-23T06:48:33;100889.44;;;3.24;100.00
56928;BME280;60850;52.502;13.426;2023-02-23T06:51:00;100891.28;;;3.41;100.00
56928;BME280;60850;52.502;13.426;2023-02-23T06:53:29;100882.53;;;3.48;100.00
56928;BME280;60850;52.502;13.426;2023-02-23T06:55:56;100885.19;;;3.58;100.00
56928;BME280;60850;52.502;13.426;2023-02-23T06:58:23;100892.31;;;3.75;100.00
56928;BME280;60850;52.502;13.426;2023-02-23T07:00:50;100889.69;;;3.81;100.00
56928;BME280;60850;52.502;13.426;2023-02-23T07:03:18;100889.72;;;3.89;100.00
56928;BME280;60850;52.502;13.426;2023-02-23T07:05:45;100891.47;;;3.91;100.00
56928;BME280;60850;52.502;13.426;2023-02-23T07:08:12;100890.63;;;3.97;100.00
56928;BME280;60850;52.502;13.426;2023-02-23T07:10:41;100885.38;;;4.15;100.00
56928;BME280;60850;52.502;13.426;2023-02-23T07:13:08;100884.50;;;4.27;100.00
56928;BME280;60850;52.502;13.426;2023-02-23T07:15:35;100882.72;;;4.23;100.00
56928;BME280;60850;52.502;13.426;2023-02-23T07:18:02;100882.78;;;4.38;100.00
56928;BME280;60850;52.502;13.426;2023-02-23T07:20:29;100888.06;;;4.62;100.00
56928;BME280;60850;52.502;13.426;2023-02-23T07:22:57;100879.25;;;4.71;100.00
56928;BME280;60850;52.502;13.426;2023-02-23T07:25:25;100884.53;;;4.86;100.00
56928;BME280;60850;52.502;13.426;2023-02-23T07:27:53;100879.22;;;5.09;100.00
56928;BME280;60850;52.502;13.426;2023-02-23T07:30:21;100884.50;;;4.99;100.00
56928;BME280;60850;52.502;13.426;2023-02-23T07:32:49;100872.16;;;5.13;100.00
56928;BME280;60850;52.502;13.426;2023-02-23T07:35:16;100882.75;;;5.16;100.00
56928;BME280;60850;52.502;13.426;2023-02-23T07:37:43;100876.56;;;5.23;100.00
56928;BME280;60850;52.502;13.426;2023-02-23T07:40:11;100869.47;;;5.28;100.00
56928;BME280;60850;52.502;13.426;2023-02-23T07:42:38;100872.06;;;5.40;100.00
56928;BME280;60850;52.502;13.426;2023-02-23T07:45:08;100871.19;;;5.44;100.00
56928;BME280;60850;52.502;13.426;2023-02-23T07:47:35;100860.63;;;5.38;100.00
56928;BME280;60850;52.502;13.426;2023-02-23T07:50:05;100868.53;;;5.41;100.00
56928;BME280;60850;52.502;13.426;2023-02-23T07:52:35;100867.59;;;5.62;100.00
56928;BME280;60850;52.502;13.426;2023-02-23T07:55:03;100878.09;;;5.79;100.00
56928;BME280;60850;52.502;13.426;2023-02-23T07:57:31;100873.69;;;5.79;100.00
56928;BME280;60850;52.502;13.426;2023-02-23T07:59:58;100871.09;;;5.69;100.00
56928;BME280;60850;52.502;13.426;2023-02-23T08:02:26;100867.50;;;5.85;100.00
56928;BME280;60850;52.502;13.426;2023-02-23T08:04:54;100865.66;;;6.02;100.00
56928;BME280;60850;52.502;13.426;2023-02-23T08:07:23;100861.97;;;6.29;100.00
56928;BME280;60850;52.502;13.426;2023-02-23T08:09:50;100860.00;;;6.56;100.00
56928;BME280;60850;52.502;13.426;2023-02-23T08:12:18;100861.59;;;6.77;100.00
56928;BME280;60850;52.502;13.426;2023-02-23T08:14:45;100858.72;;;6.98;100.00
56928;BME280;60850;52.502;13.426;2023-02-23T08:17:12;100859.22;;;7.34;100.00
56928;BME280;60850;52.502;13.426;2023-02-23T08:19:41;100859.88;;;7.54;100.00
56928;BME280;60850;52.502;13.426;2023-02-23T08:22:08;100859.41;;;7.88;100.00
56928;BME280;60850;52.502;13.426;2023-02-23T08:24:34;100854.66;;;8.13;100.00
56928;BME280;60850;52.502;13.426;2023-02-23T08:27:02;100857.19;;;8.20;100.00
56928;BME280;60850;52.502;13.426;2023-02-23T08:29:30;100863.13;;;8.41;100.00
56928;BME280;60850;52.502;13.426;2023-02-23T08:32:00;100858.81;;;8.31;100.00
56928;BME280;60850;52.502;13.426;2023-02-23T08:34:27;100858.53;;;8.50;100.00
56928;BME280;60850;52.502;13.426;2023-02-23T08:36:56;100858.50;;;8.52;100.00
56928;BME280;60850;52.502;13.426;2023-02-23T08:39:22;100856.88;;;8.43;100.00
56928;BME280;60850;52.502;13.426;2023-02-23T08:41:52;100859.25;;;8.00;100.00
56928;BME280;60850;52.502;13.426;2023-02-23T08:44:20;100850.72;;;7.78;100.00
56928;BME280;60850;52.502;13.426;2023-02-23T08:46:47;100858.22;;;8.10;100.00
56928;BME280;60850;52.502;13.426;2023-02-23T08:49:14;100853.31;;;8.44;100.00
56928;BME280;60850;52.502;13.426;2023-02-23T08:51:41;100848.63;;;8.62;100.00
56928;BME280;60850;52.502;13.426;2023-02-23T08:54:09;100854.84;;;8.59;100.00
56928;BME280;60850;52.502;13.426;2023-02-23T08:56:39;100863.66;;;8.63;100.00
56928;BME280;60850;52.502;13.426;2023-02-23T08:59:06;100861.31;;;8.43;100.00
56928;BME280;60850;52.502;13.426;2023-02-23T09:01:33;100862.28;;;8.39;100.00
56928;BME280;60850;52.502;13.426;2023-02-23T09:04:02;100857.88;;;8.36;100.00
56928;BME280;60850;52.502;13.426;2023-02-23T09:06:30;100864.81;;;8.45;100.00
56928;BME280;60850;52.502;13.426;2023-02-23T09:08:57;100858.53;;;8.50;100.00
56928;BME280;60850;52.502;13.426;2023-02-23T09:11:26;100854.16;;;8.48;100.00
56928;BME280;60850;52.502;13.426;2023-02-23T09:13:52;100867.47;;;8.46;100.00
56928;BME280;60850;52.502;13.426;2023-02-23T09:16:20;100859.22;;;8.63;100.00
56928;BME280;60850;52.502;13.426;2023-02-23T09:18:47;100859.47;;;8.48;100.00
56928;BME280;60850;52.502;13.426;2023-02-23T09:21:16;100857.47;;;8.62;100.00
56928;BME280;60850;52.502;13.426;2023-02-23T09:23:46;100867.03;;;8.74;100.00
56928;BME280;60850;52.502;13.426;2023-02-23T09:26:16;100863.34;;;8.79;100.00
56928;BME280;60850;52.502;13.426;2023-02-23T09:28:44;100868.59;;;8.84;100.00
56928;BME280;60850;52.502;13.426;2023-02-23T09:31:13;100859.44;;;9.00;100.00
56928;BME280;60850;52.502;13.426;2023-02-23T09:33:41;100853.91;;;9.13;100.00
56928;BME280;60850;52.502;13.426;2023-02-23T09:36:10;100860.69;;;9.29;100.00
56928;BME280;60850;52.502;13.426;2023-02-23T09:38:43;100861.31;;;9.42;100.00
56928;BME280;60850;52.502;13.426;2023-02-23T09:41:34;100861.09;;;9.54;100.00
56928;BME280;60850;52.502;13.426;2023-02-23T09:44:16;100847.81;;;9.52;100.00
56928;BME280;60850;52.502;13.426;2023-02-23T09:46:57;100853.88;;;9.59;100.00
56928;BME280;60850;52.502;13.426;2023-02-23T09:49:28;100844.16;;;9.56;100.00
56928;BME280;60850;52.502;13.426;2023-02-23T09:51:58;100849.16;;;9.72;100.00
56928;BME280;60850;52.502;13.426;2023-02-23T09:54:29;100856.09;;;9.80;100.00
56928;BME280;60850;52.502;13.426;2023-02-23T09:56:59;100855.94;;;9.88;100.00
56928;BME280;60850;52.502;13.426;2023-02-23T09:59:29;100853.53;;;10.14;100.00
56928;BME280;60850;52.502;13.426;2023-02-23T10:02:02;100857.56;;;10.34;100.00
56928;BME280;60850;52.502;13.426;2023-02-23T10:04:31;100853.50;;;10.55;100.00
56928;BME280;60850;52.502;13.426;2023-02-23T10:07:17;100857.19;;;10.51;100.00
56928;BME280;60850;52.502;13.426;2023-02-23T10:09:58;100856.72;;;10.69;100.00
56928;BME280;60850;52.502;13.426;2023-02-23T10:12:32;100851.78;;;10.88;100.00
56928;BME280;60850;52.502;13.426;2023-02-23T10:15:15;100860.72;;;10.87;100.00
56928;BME280;60850;52.502;13.426;2023-02-23T10:17:53;100857.69;;;11.00;100.00
56928;BME280;60850;52.502;13.426;2023-02-23T10:20:26;100850.03;;;11.21;100.00
56928;BME280;60850;52.502;13.426;2023-02-23T10:23:02;100855.84;;;11.35;100.00
56928;BME280;60850;52.502;13.426;2023-02-23T10:25:34;100851.78;;;11.53;100.00
56928;BME280;60850;52.502;13.426;2023-02-23T10:28:02;100841.63;;;11.66;100.00
56928;BME280;60850;52.502;13.426;2023-02-23T10:30:32;100844.13;;;11.72;100.00
56928;BME280;60850;52.502;13.426;2023-02-23T10:33:03;100847.28;;;11.86;100.00
56928;BME280;60850;52.502;13.426;2023-02-23T10:35:31;100835.38;;;11.96;100.00
56928;BME280;60850;52.502;13.426;2023-02-23T10:38:00;100839.81;;;11.97;100.00
56928;BME280;60850;52.502;13.426;2023-02-23T10:40:30;100841.72;;;11.94;100.00
56928;BME280;60850;52.502;13.426;2023-02-23T10:42:59;100844.31;;;11.95;100.00
56928;BME280;60850;52.502;13.426;2023-02-23T10:45:28;100845.34;;;11.91;100.00
56928;BME280;60850;52.502;13.426;2023-02-23T10:47:59;100846.25;;;11.90;100.00
56928;BME280;60850;52.502;13.426;2023-02-23T10:50:28;100841.78;;;11.91;100.00
56928;BME280;60850;52.502;13.426;2023-02-23T10:52:58;100836.41;;;11.92;100.00
56928;BME280;60850;52.502;13.426;2023-02-23T10:55:27;100843.44;;;11.95;100.00
56928;BME280;60850;52.502;13.426;2023-02-23T10:58:04;100835.38;;;11.96;100.00
56928;BME280;60850;52.502;13.426;2023-02-23T11:00:35;100836.38;;;11.94;100.00
56928;BME280;60850;52.502;13.426;2023-02-23T11:03:16;100831.91;;;11.94;100.00
56928;BME280;60850;52.502;13.426;2023-02-23T11:05:45;100826.91;;;11.82;100.00
56928;BME280;60850;52.502;13.426;2023-02-23T11:08:21;100827.72;;;11.86;100.00
56928;BME280;60850;52.502;13.426;2023-02-23T11:10:59;100826.97;;;11.80;100.00
56928;BME280;60850;52.502;13.426;2023-02-23T11:13:28;100822.66;;;11.75;100.00
56928;BME280;60850;52.502;13.426;2023-02-23T11:16:01;100823.84;;;11.65;100.00
56928;BME280;60850;52.502;13.426;2023-02-23T11:18:31;100822.00;;;11.67;100.00
56928;BME280;60850;52.502;13.426;2023-02-23T11:20:58;100828.84;;;11.77;100.00
56928;BME280;60850;52.502;13.426;2023-02-23T11:23:27;100828.66;;;11.83;100.00
56928;BME280;60850;52.502;13.426;2023-02-23T11:25:57;100824.00;;;11.90;100.00
56928;BME280;60850;52.502;13.426;2023-02-23T11:28:28;100820.16;;;12.00;100.00
56928;BME280;60850;52.502;13.426;2023-02-23T11:31:01;100815.50;;;12.06;100.00
56928;BME280;60850;52.502;13.426;2023-02-23T11:33:32;100802.06;;;12.08;100.00
56928;BME280;60850;52.502;13.426;2023-02-23T11:36:17;100811.47;;;12.21;100.00
56928;BME280;60850;52.502;13.426;2023-02-23T11:39:00;100809.34;;;12.31;100.00
56928;BME280;60850;52.502;13.426;2023-02-23T11:41:28;100802.06;;;12.36;100.00
56928;BME280;60850;52.502;13.426;2023-02-23T11:43:57;100802.69;;;12.44;100.00
56928;BME280;60850;52.502;13.426;2023-02-23T11:46:27;100802.41;;;12.52;100.00
56928;BME280;60850;52.502;13.426;2023-02-23T11:48:58;100791.31;;;12.64;100.00
56928;BME280;60850;52.502;13.426;2023-02-23T11:51:27;100787.97;;;12.84;100.00
56928;BME280;60850;52.502;13.426;2023-02-23T11:53:56;100783.13;;;12.93;100.00
56928;BME280;60850;52.502;13.426;2023-02-23T11:56:24;100781.91;;;13.04;100.00
56928;BME280;60850;52.502;13.426;2023-02-23T11:58:53;100776.16;;;13.14;100.00
56928;BME280;60850;52.502;13.426;2023-02-23T12:01:25;100772.22;;;13.25;100.00
56928;BME280;60850;52.502;13.426;2023-02-23T12:04:03;100769.91;;;13.39;100.00
56928;BME280;60850;52.502;13.426;2023-02-23T12:06:33;100765.19;;;13.45;100.00
56928;BME280;60850;52.502;13.426;2023-02-23T12:09:08;100772.41;;;13.43;100.00
56928;BME280;60850;52.502;13.426;2023-02-23T12:11:42;100771.38;;;13.48;100.00
56928;BME280;60850;52.502;13.426;2023-02-23T12:14:20;100766.84;;;13.50;100.00
56928;BME280;60850;52.502;13.426;2023-02-23T12:16:54;100769.75;;;13.43;100.00
56928;BME280;60850;52.502;13.426;2023-02-23T12:19:27;100766.06;;;13.46;100.00
56928;BME280;60850;52.502;13.426;2023-02-23T12:22:02;100772.97;;;13.53;100.00
56928;BME280;60850;52.502;13.426;2023-02-23T12:24:39;100761.97;;;13.59;100.00
56928;BME280;60850;52.502;13.426;2023-02-23T12:27:11;100768.97;;;13.63;100.00
56928;BME280;60850;52.502;13.426;2023-02-23T12:29:49;100767.00;;;13.68;100.00
56928;BME280;60850;52.502;13.426;2023-02-23T12:32:19;100763.25;;;13.72;100.00
56928;BME280;60850;52.502;13.426;2023-02-23T12:34:53;100767.69;;;13.73;100.00
56928;BME280;60850;52.502;13.426;2023-02-23T12:37:37;100766.69;;;13.76;100.00
56928;BME280;60850;52.502;13.426;2023-02-23T12:40:13;100759.78;;;13.70;100.00
56928;BME280;60850;52.502;13.426;2023-02-23T12:42:45;100752.09;;;13.61;100.00
56928;BME280;60850;52.502;13.426;2023-02-23T12:45:19;100752.66;;;13.46;100.00
56928;BME280;60850;52.502;13.426;2023-02-23T12:47:52;100757.16;;;13.45;100.00
56928;BME280;60850;52.502;13.426;2023-02-23T12:50:26;100750.13;;;13.43;100.00
56928;BME280;60850;52.502;13.426;2023-02-23T12:52:56;100746.72;;;13.38;100.00
56928;BME280;60850;52.502;13.426;2023-02-23T12:55:31;100751.44;;;13.31;100.00
56928;BME280;60850;52.502;13.426;2023-02-23T12:58:06;100753.59;;;13.22;100.00
56928;BME280;60850;52.502;13.426;2023-02-23T13:00:52;100746.50;;;13.21;100.00
56928;BME280;60850;52.502;13.426;2023-02-23T13:03:35;100752.81;;;13.18;100.00
56928;BME280;60850;52.502;13.426;2023-02-23T13:06:11;100743.03;;;13.17;100.00